createdAt,value
2023-12-11T00:00:15.732Z,11.74
2023-12-11T00:02:47.140Z,11.62
2023-12-11T00:05:16.485Z,11.57
2023-12-11T00:07:45.450Z,11.70
2023-12-11T00:10:13.588Z,11.67
2023-12-11T00:12:43.693Z,11.73
2023-12-11T00:15:12.398Z,11.74
2023-12-11T00:17:41.981Z,11.76
2023-12-11T00:20:11.695Z,11.69
2023-12-11T00:22:40.722Z,11.82
2023-12-11T00:25:11.873Z,11.83
2023-12-11T00:27:41.038Z,11.75
2023-12-11T00:30:11.192Z,11.77
2023-12-11T00:32:40.094Z,11.66
2023-12-11T00:35:09.549Z,11.76
2023-12-11T00:37:43.918Z,11.57
2023-12-11T00:40:13.021Z,11.56
2023-12-11T00:42:41.416Z,11.59
2023-12-11T00:45:14.157Z,11.72
2023-12-11T00:47:42.518Z,11.75
2023-12-11T00:50:10.902Z,11.66
2023-12-11T00:52:38.933Z,11.78
2023-12-11T00:55:08.525Z,11.79
2023-12-11T00:57:36.720Z,11.84
2023-12-11T01:00:08.127Z,11.91
2023-12-11T01:02:43.724Z,11.90
2023-12-11T01:05:13.669Z,11.85
2023-12-11T01:07:44.275Z,11.77
2023-12-11T01:10:16.178Z,11.85
2023-12-11T01:12:46.840Z,11.94
2023-12-11T01:15:19.242Z,11.88
2023-12-11T01:17:52.150Z,11.99
2023-12-11T01:20:22.275Z,11.85
2023-12-11T01:22:53.067Z,12.01
2023-12-11T01:25:21.124Z,12.00
2023-12-11T01:27:51.995Z,11.96
2023-12-11T01:30:20.651Z,11.87
2023-12-11T01:32:52.192Z,11.97
2023-12-11T01:35:20.553Z,11.92
2023-12-11T01:37:48.376Z,11.96
2023-12-11T01:40:16.372Z,11.97
2023-12-11T01:42:47.446Z,11.88
2023-12-11T01:45:15.605Z,11.92
2023-12-11T01:47:49.848Z,11.89
2023-12-11T01:50:19.652Z,11.94
2023-12-11T01:52:51.841Z,11.88
2023-12-11T01:55:19.987Z,11.96
2023-12-11T01:57:48.528Z,11.95
2023-12-11T02:00:17.004Z,11.92
2023-12-11T02:02:45.655Z,12.15
2023-12-11T02:05:13.945Z,11.84
2023-12-11T02:07:43.362Z,11.93
2023-12-11T02:10:11.861Z,12.07
2023-12-11T02:12:40.891Z,12.04
2023-12-11T02:15:09.567Z,11.87
2023-12-11T02:17:37.440Z,11.93
2023-12-11T02:20:07.208Z,11.77
2023-12-11T02:22:35.180Z,11.95
2023-12-11T02:25:06.713Z,11.81
2023-12-11T02:27:36.349Z,11.70
2023-12-11T02:30:04.422Z,11.93
2023-12-11T02:32:32.305Z,12.02
2023-12-11T02:35:00.352Z,12.03
2023-12-11T02:37:28.461Z,11.95
2023-12-11T02:39:56.554Z,11.87
2023-12-11T02:42:24.602Z,11.90
2023-12-11T02:44:54.034Z,12.07
2023-12-11T02:47:21.891Z,11.96
2023-12-11T02:49:49.955Z,11.89
2023-12-11T02:52:18.084Z,11.97
2023-12-11T02:54:45.984Z,11.90
2023-12-11T02:57:14.122Z,11.95
2023-12-11T02:59:42.017Z,12.09
2023-12-11T03:02:11.178Z,12.19
2023-12-11T03:04:40.363Z,12.19
2023-12-11T03:07:08.364Z,12.09
2023-12-11T03:09:36.434Z,12.18
2023-12-11T03:12:04.912Z,12.13
2023-12-11T03:14:32.758Z,12.26
2023-12-11T03:17:00.617Z,12.18
2023-12-11T03:19:30.130Z,12.09
2023-12-11T03:21:58.135Z,12.16
2023-12-11T03:24:26.003Z,12.11
2023-12-11T03:26:54.073Z,12.03
2023-12-11T03:29:21.989Z,12.30
2023-12-11T03:31:49.849Z,12.29
2023-12-11T03:34:18.003Z,12.11
2023-12-11T03:36:48.300Z,12.14
2023-12-11T03:39:16.577Z,12.28
2023-12-11T03:41:45.308Z,12.30
2023-12-11T03:44:13.227Z,12.12
2023-12-11T03:46:41.512Z,12.13
2023-12-11T03:49:09.912Z,12.23
2023-12-11T03:51:37.872Z,12.21
2023-12-11T03:54:06.979Z,12.14
2023-12-11T03:56:35.063Z,12.23
2023-12-11T03:59:02.970Z,12.19
2023-12-11T04:01:30.886Z,12.19
2023-12-11T04:03:59.111Z,12.07
2023-12-11T04:06:27.086Z,12.05
2023-12-11T04:08:55.163Z,11.98
2023-12-11T04:11:24.609Z,11.94
2023-12-11T04:13:52.457Z,11.97
2023-12-11T04:16:20.268Z,11.91
2023-12-11T04:18:50.724Z,11.92
2023-12-11T04:21:18.648Z,11.87
2023-12-11T04:23:46.563Z,11.87
2023-12-11T04:26:15.370Z,11.90
2023-12-11T04:28:44.560Z,11.87
2023-12-11T04:31:12.962Z,11.94
2023-12-11T04:33:41.298Z,11.91
2023-12-11T04:36:10.352Z,11.98
2023-12-11T04:38:38.597Z,12.05
2023-12-11T04:41:06.947Z,12.01
2023-12-11T04:43:35.297Z,12.00
2023-12-11T04:46:05.046Z,12.06
2023-12-11T04:48:33.973Z,11.96
2023-12-11T04:51:02.138Z,12.00
2023-12-11T04:53:33.503Z,12.08
2023-12-11T04:56:07.420Z,12.12
2023-12-11T04:58:35.761Z,12.14
2023-12-11T05:01:05.954Z,12.05
2023-12-11T05:03:33.926Z,12.06
2023-12-11T05:06:02.246Z,11.89
2023-12-11T05:08:30.793Z,12.13
2023-12-11T05:10:58.835Z,12.04
2023-12-11T05:13:26.709Z,12.04
2023-12-11T05:15:54.852Z,11.97
2023-12-11T05:18:24.814Z,12.02
2023-12-11T05:20:52.755Z,12.04
2023-12-11T05:23:20.869Z,12.08
2023-12-11T05:25:48.660Z,12.02
2023-12-11T05:28:16.531Z,12.04
2023-12-11T05:30:44.928Z,11.98
2023-12-11T05:33:12.990Z,12.03
2023-12-11T05:35:42.279Z,12.03
2023-12-11T05:38:10.387Z,12.11
2023-12-11T05:40:38.346Z,12.17
2023-12-11T05:43:06.264Z,12.20
2023-12-11T05:45:34.396Z,12.27
2023-12-11T05:48:02.288Z,12.30
2023-12-11T05:50:32.187Z,12.27
2023-12-11T05:53:03.191Z,12.26
2023-12-11T05:55:31.099Z,12.19
2023-12-11T05:57:58.970Z,12.22
2023-12-11T06:00:27.269Z,12.18
2023-12-11T06:02:55.789Z,12.17
2023-12-11T06:05:23.868Z,12.15
2023-12-11T06:07:51.666Z,12.11
2023-12-11T06:10:21.204Z,12.05
2023-12-11T06:12:49.217Z,11.99
2023-12-11T06:15:17.331Z,11.95
2023-12-11T06:17:45.500Z,11.89
2023-12-11T06:20:13.656Z,11.91
2023-12-11T06:22:41.738Z,11.90
2023-12-11T06:25:09.065Z,11.89
2023-12-11T06:27:38.317Z,11.94
2023-12-11T06:30:08.632Z,11.91
2023-12-11T06:32:36.820Z,11.95
2023-12-11T06:35:05.562Z,11.95
2023-12-11T06:37:33.541Z,11.97
2023-12-11T06:40:01.673Z,11.83
2023-12-11T06:42:33.700Z,11.82
2023-12-11T06:45:03.230Z,11.80
2023-12-11T06:47:31.307Z,11.79
2023-12-11T06:49:59.370Z,11.87
2023-12-11T06:52:28.494Z,11.87
2023-12-11T06:54:56.435Z,11.84
2023-12-11T06:57:24.349Z,11.80
2023-12-11T06:59:52.520Z,11.82
2023-12-11T07:02:21.960Z,11.80
2023-12-11T07:04:49.962Z,11.76
2023-12-11T07:07:18.146Z,11.87
2023-12-11T07:09:47.528Z,11.82
2023-12-11T07:12:15.810Z,11.92
2023-12-11T07:14:45.427Z,11.89
2023-12-11T07:17:13.349Z,11.91
2023-12-11T07:19:43.109Z,11.94
2023-12-11T07:22:11.373Z,11.95
2023-12-11T07:24:39.324Z,11.89
2023-12-11T07:27:07.187Z,12.06
2023-12-11T07:29:35.245Z,12.04
2023-12-11T07:32:03.121Z,12.06
2023-12-11T07:34:31.261Z,12.06
2023-12-11T07:37:00.790Z,12.08
2023-12-11T07:39:28.649Z,12.13
2023-12-11T07:41:56.804Z,12.12
2023-12-11T07:44:24.875Z,12.16
2023-12-11T07:46:52.721Z,12.13
2023-12-11T07:49:20.759Z,12.21
2023-12-11T07:51:48.951Z,12.26
2023-12-11T07:54:19.113Z,12.28
2023-12-11T07:56:48.395Z,12.33
2023-12-11T07:59:17.956Z,12.37
2023-12-11T08:01:46.498Z,12.40
2023-12-11T08:04:15.010Z,12.52
2023-12-11T08:06:43.313Z,12.49
2023-12-11T08:09:12.304Z,12.57
2023-12-11T08:11:41.757Z,12.65
2023-12-11T08:14:09.606Z,12.74
2023-12-11T08:16:37.466Z,12.79
2023-12-11T08:19:05.620Z,12.79
2023-12-11T08:21:34.029Z,12.85
2023-12-11T08:24:01.903Z,12.84
2023-12-11T08:26:30.074Z,12.87
2023-12-11T08:29:00.552Z,12.82
2023-12-11T08:31:29.057Z,12.83
2023-12-11T08:33:57.140Z,12.88
2023-12-11T08:36:25.039Z,12.88
2023-12-11T08:38:53.370Z,12.93
2023-12-11T08:41:21.302Z,12.90
2023-12-11T08:43:49.639Z,12.86
2023-12-11T08:46:19.166Z,12.82
2023-12-11T08:48:47.504Z,12.93
2023-12-11T08:51:18.445Z,12.94
2023-12-11T08:53:46.785Z,12.93
2023-12-11T08:56:16.393Z,12.96
2023-12-11T08:58:44.771Z,12.96
2023-12-11T09:01:12.994Z,12.98
2023-12-11T09:03:43.878Z,12.78
2023-12-11T09:06:12.129Z,12.89
2023-12-11T09:08:40.294Z,12.84
2023-12-11T09:11:08.196Z,12.79
2023-12-11T09:13:37.150Z,12.83
2023-12-11T09:16:05.702Z,12.79
2023-12-11T09:18:33.693Z,12.86
2023-12-11T09:21:03.172Z,12.85
2023-12-11T09:23:31.240Z,12.89
2023-12-11T09:25:59.054Z,12.87
2023-12-11T09:28:31.821Z,12.84
2023-12-11T09:31:05.985Z,12.95
2023-12-11T09:33:34.488Z,12.82
2023-12-11T09:36:05.020Z,12.91
2023-12-11T09:38:32.944Z,12.91
2023-12-11T09:41:01.603Z,12.98
2023-12-11T09:43:29.572Z,13.06
2023-12-11T09:45:57.702Z,13.11
2023-12-11T09:48:26.056Z,13.13
2023-12-11T09:50:54.595Z,13.15
2023-12-11T09:53:23.987Z,13.29
2023-12-11T09:55:52.500Z,13.39
2023-12-11T09:58:23.216Z,13.46
2023-12-11T10:00:51.426Z,13.47
2023-12-11T10:03:19.669Z,13.46
2023-12-11T10:05:48.392Z,13.51
2023-12-11T10:08:18.993Z,13.54
2023-12-11T10:10:48.454Z,13.54
2023-12-11T10:13:25.370Z,13.40
2023-12-11T10:15:53.965Z,13.57
2023-12-11T10:18:22.400Z,13.73
2023-12-11T10:20:55.241Z,13.91
2023-12-11T10:23:24.019Z,14.06
2023-12-11T10:25:55.217Z,14.22
2023-12-11T10:28:25.651Z,14.75
2023-12-11T10:30:55.800Z,15.14
2023-12-11T10:33:26.088Z,15.41
2023-12-11T10:35:55.140Z,15.52
2023-12-11T10:38:24.070Z,15.50
2023-12-11T10:40:54.430Z,15.60
2023-12-11T10:43:22.438Z,15.65
2023-12-11T10:45:52.060Z,15.55
2023-12-11T10:48:22.454Z,15.43
2023-12-11T10:50:51.560Z,15.70
2023-12-11T10:53:20.326Z,15.81
2023-12-11T10:55:51.543Z,15.82
2023-12-11T10:58:22.090Z,15.87
2023-12-11T11:00:50.715Z,15.91
2023-12-11T11:03:22.297Z,15.73
2023-12-11T11:05:53.641Z,15.82
2023-12-11T11:08:28.799Z,15.64
2023-12-11T11:11:03.616Z,15.76
2023-12-11T11:13:39.990Z,15.90
2023-12-11T11:16:08.311Z,15.96
2023-12-11T11:19:05.206Z,15.57
2023-12-11T11:21:33.565Z,15.49
2023-12-11T11:24:01.630Z,15.69
2023-12-11T11:26:34.885Z,15.62
2023-12-11T11:29:04.972Z,15.60
2023-12-11T11:31:52.997Z,15.58
2023-12-11T11:34:47.230Z,15.47
2023-12-11T11:37:18.681Z,15.51
2023-12-11T11:40:01.253Z,15.31
2023-12-11T11:42:32.298Z,15.18
2023-12-11T11:45:03.229Z,15.56
2023-12-11T11:47:33.654Z,15.48
2023-12-11T11:50:06.673Z,15.47
2023-12-11T11:52:37.217Z,15.50
2023-12-11T11:55:12.307Z,15.59
2023-12-11T11:57:41.117Z,15.58
2023-12-11T12:00:11.982Z,15.61
2023-12-11T12:02:40.143Z,15.55
2023-12-11T12:05:11.265Z,15.48
2023-12-11T12:07:41.261Z,15.28
2023-12-11T12:10:10.053Z,15.26
2023-12-11T12:12:38.024Z,15.14
2023-12-11T12:15:08.838Z,15.31
2023-12-11T12:17:40.257Z,15.36
2023-12-11T12:20:12.617Z,15.44
2023-12-11T12:22:41.748Z,15.35
2023-12-11T12:25:17.683Z,15.50
2023-12-11T12:27:46.973Z,15.40
2023-12-11T12:30:16.063Z,15.40
2023-12-11T12:32:45.688Z,15.27
2023-12-11T12:35:13.924Z,15.41
2023-12-11T12:37:42.389Z,15.35
2023-12-11T12:40:12.974Z,15.32
2023-12-11T12:42:41.236Z,15.10
2023-12-11T12:45:12.867Z,15.44
2023-12-11T12:47:48.104Z,15.12
2023-12-11T12:50:24.206Z,15.18
2023-12-11T12:52:52.300Z,15.37
2023-12-11T12:55:30.089Z,15.39
2023-12-11T12:57:58.825Z,15.29
2023-12-11T13:00:27.080Z,15.43
2023-12-11T13:02:56.749Z,15.32
2023-12-11T13:05:41.721Z,15.20
2023-12-11T13:08:10.405Z,15.20
2023-12-11T13:10:38.738Z,15.31
2023-12-11T13:13:12.758Z,15.27
2023-12-11T13:15:42.014Z,14.95
2023-12-11T13:18:15.316Z,15.04
2023-12-11T13:20:44.028Z,15.04
2023-12-11T13:23:12.170Z,15.02
2023-12-11T13:25:40.055Z,15.07
2023-12-11T13:28:08.342Z,15.07
2023-12-11T13:30:36.491Z,15.00
2023-12-11T13:33:04.932Z,15.10
2023-12-11T13:35:35.026Z,14.80
2023-12-11T13:38:02.965Z,14.88
2023-12-11T13:40:31.003Z,14.80
2023-12-11T13:42:59.398Z,14.86
2023-12-11T13:45:28.895Z,14.75
2023-12-11T13:47:56.908Z,14.92
2023-12-11T13:50:25.106Z,15.04
2023-12-11T13:52:54.477Z,14.78
2023-12-11T13:55:22.350Z,14.75
2023-12-11T13:57:50.549Z,14.79
2023-12-11T14:00:18.665Z,14.58
2023-12-11T14:03:00.904Z,14.51
2023-12-11T14:05:32.224Z,14.58
2023-12-11T14:08:01.987Z,14.50
2023-12-11T14:10:31.660Z,14.68
2023-12-11T14:12:59.817Z,14.67
2023-12-11T14:15:29.753Z,14.60
2023-12-11T14:17:57.943Z,14.32
2023-12-11T14:20:25.870Z,14.61
2023-12-11T14:22:54.167Z,14.57
2023-12-11T14:25:23.510Z,14.48
2023-12-11T14:27:51.439Z,14.55
2023-12-11T14:30:19.905Z,14.79
2023-12-11T14:32:48.000Z,14.78
2023-12-11T14:35:16.019Z,14.77
2023-12-11T14:37:44.165Z,14.72
2023-12-11T14:40:12.661Z,14.44
2023-12-11T14:42:41.977Z,14.61
2023-12-11T14:45:11.585Z,14.26
2023-12-11T14:47:39.558Z,14.37
2023-12-11T14:50:08.907Z,14.31
2023-12-11T14:52:39.206Z,14.22
2023-12-11T14:55:08.552Z,14.18
2023-12-11T14:57:37.457Z,14.20
2023-12-11T15:00:12.018Z,14.03
2023-12-11T15:02:39.981Z,14.09
2023-12-11T15:05:09.044Z,14.11
2023-12-11T15:07:37.799Z,14.03
2023-12-11T15:10:06.833Z,14.01
2023-12-11T15:12:36.773Z,14.10
2023-12-11T15:15:07.962Z,13.93
2023-12-11T15:17:36.365Z,13.95
2023-12-11T15:20:10.602Z,13.99
2023-12-11T15:22:38.939Z,14.14
2023-12-11T15:25:10.357Z,13.82
2023-12-11T15:27:38.675Z,13.99
2023-12-11T15:30:10.035Z,13.89
2023-12-11T15:32:38.831Z,13.86
2023-12-11T15:35:07.662Z,14.19
2023-12-11T15:37:36.109Z,13.87
2023-12-11T15:40:08.254Z,14.03
2023-12-11T15:42:39.093Z,14.05
2023-12-11T15:45:09.600Z,14.08
2023-12-11T15:47:59.977Z,14.08
2023-12-11T15:50:26.268Z,14.13
2023-12-11T15:52:54.695Z,14.15
2023-12-11T15:55:23.144Z,13.94
2023-12-11T15:57:52.737Z,14.03
2023-12-11T16:00:22.647Z,13.93
2023-12-11T16:02:50.783Z,14.03
2023-12-11T16:05:19.125Z,14.23
2023-12-11T16:07:47.360Z,14.00
2023-12-11T16:10:15.836Z,14.10
2023-12-11T16:12:44.005Z,14.05
2023-12-11T16:15:12.939Z,13.77
2023-12-11T16:17:42.524Z,13.86
2023-12-11T16:20:11.081Z,14.09
2023-12-11T16:22:39.006Z,14.14
2023-12-11T16:25:11.418Z,13.96
2023-12-11T16:27:39.768Z,14.02
2023-12-11T16:30:10.809Z,13.90
2023-12-11T16:32:38.746Z,13.88
2023-12-11T16:35:08.968Z,13.85
2023-12-11T16:37:37.243Z,13.90
2023-12-11T16:40:07.425Z,13.70
2023-12-11T16:42:36.298Z,13.78
2023-12-11T16:45:05.112Z,13.74
2023-12-11T16:47:33.713Z,13.74
2023-12-11T16:50:06.958Z,13.84
2023-12-11T16:52:38.099Z,13.84
2023-12-11T16:55:07.631Z,13.75
2023-12-11T16:57:35.562Z,13.89
2023-12-11T17:00:04.156Z,13.74
2023-12-11T17:02:32.610Z,13.64
2023-12-11T17:05:00.714Z,13.72
2023-12-11T17:07:28.978Z,13.71
2023-12-11T17:09:59.900Z,13.71
2023-12-11T17:12:28.569Z,13.48
2023-12-11T17:14:57.761Z,13.71
2023-12-11T17:17:27.035Z,13.51
2023-12-11T17:19:56.253Z,13.67
2023-12-11T17:22:24.216Z,13.45
2023-12-11T17:24:52.135Z,13.54
2023-12-11T17:27:21.636Z,13.63
2023-12-11T17:29:49.705Z,13.43
2023-12-11T17:32:17.903Z,13.63
2023-12-11T17:34:46.447Z,13.77
2023-12-11T17:37:14.479Z,13.61
2023-12-11T17:39:42.433Z,13.31
2023-12-11T17:42:10.540Z,13.35
2023-12-11T17:44:39.672Z,13.41
2023-12-11T17:47:07.529Z,13.43
2023-12-11T17:49:35.734Z,13.27
2023-12-11T17:52:03.778Z,13.47
2023-12-11T17:54:31.830Z,13.49
2023-12-11T17:57:00.052Z,13.62
2023-12-11T17:59:27.939Z,13.60
2023-12-11T18:01:57.341Z,13.45
2023-12-11T18:04:25.752Z,13.35
2023-12-11T18:06:54.924Z,13.27
2023-12-11T18:09:22.942Z,13.35
2023-12-11T18:11:51.002Z,13.18
2023-12-11T18:14:18.882Z,13.13
2023-12-11T18:16:46.776Z,13.06
2023-12-11T18:19:16.305Z,13.12
2023-12-11T18:21:44.217Z,12.87
2023-12-11T18:24:12.205Z,12.79
2023-12-11T18:26:40.626Z,12.81
2023-12-11T18:29:08.428Z,12.71
2023-12-11T18:31:36.287Z,12.87
2023-12-11T18:34:05.514Z,12.75
2023-12-11T18:36:39.830Z,12.90
2023-12-11T18:39:09.949Z,12.90
2023-12-11T18:41:37.840Z,12.76
2023-12-11T18:44:06.038Z,12.79
2023-12-11T18:46:34.244Z,12.82
2023-12-11T18:49:02.468Z,12.81
2023-12-11T18:51:31.786Z,12.58
2023-12-11T18:54:01.359Z,12.52
2023-12-11T18:56:29.466Z,12.68
2023-12-11T18:58:57.353Z,12.48
2023-12-11T19:01:25.905Z,12.45
2023-12-11T19:03:54.302Z,12.35
2023-12-11T19:06:22.510Z,12.44
2023-12-11T19:08:50.588Z,12.39
2023-12-11T19:11:19.912Z,12.54
2023-12-11T19:13:47.760Z,12.21
2023-12-11T19:16:16.012Z,12.39
2023-12-11T19:18:44.016Z,12.56
2023-12-11T19:21:14.569Z,12.37
2023-12-11T19:23:42.678Z,12.28
2023-12-11T19:26:12.814Z,12.64
2023-12-11T19:28:42.073Z,12.64
2023-12-11T19:31:10.234Z,12.48
2023-12-11T19:33:39.140Z,12.65
2023-12-11T19:36:07.965Z,12.51
2023-12-11T19:38:38.872Z,12.58
2023-12-11T19:41:08.343Z,12.17
2023-12-11T19:43:36.613Z,12.16
2023-12-11T19:46:08.450Z,12.25
2023-12-11T19:48:37.506Z,12.10
2023-12-11T19:51:12.279Z,12.35
2023-12-11T19:53:40.556Z,12.01
2023-12-11T19:56:09.343Z,12.11
2023-12-11T19:58:37.652Z,12.13
2023-12-11T20:01:07.580Z,11.96
2023-12-11T20:03:35.731Z,11.91
2023-12-11T20:06:04.723Z,12.29
2023-12-11T20:08:33.260Z,12.07
2023-12-11T20:11:01.397Z,12.18
2023-12-11T20:13:29.675Z,12.38
2023-12-11T20:15:58.014Z,12.31
2023-12-11T20:18:27.758Z,12.27
2023-12-11T20:20:55.748Z,12.33
2023-12-11T20:23:23.752Z,12.20
2023-12-11T20:25:52.254Z,12.16
2023-12-11T20:28:20.260Z,12.19
2023-12-11T20:30:48.486Z,12.29
2023-12-11T20:33:16.825Z,12.37
2023-12-11T20:35:47.330Z,12.22
2023-12-11T20:38:15.218Z,12.14
2023-12-11T20:40:43.368Z,12.23
2023-12-11T20:43:11.854Z,12.36
2023-12-11T20:45:40.118Z,12.35
2023-12-11T20:48:08.327Z,12.25
2023-12-11T20:50:36.430Z,12.35
2023-12-11T20:53:05.666Z,12.13
2023-12-11T20:55:33.839Z,12.41
2023-12-11T20:58:01.933Z,12.41
2023-12-11T21:00:29.826Z,12.26
2023-12-11T21:02:59.887Z,12.29
2023-12-11T21:05:28.561Z,12.29
2023-12-11T21:07:56.815Z,12.38
2023-12-11T21:10:26.362Z,12.43
2023-12-11T21:12:54.341Z,12.32
2023-12-11T21:15:24.950Z,12.44
2023-12-11T21:17:56.312Z,12.31
2023-12-11T21:20:24.221Z,12.38
2023-12-11T21:22:52.115Z,12.48
2023-12-11T21:25:21.028Z,12.39
2023-12-11T21:27:50.389Z,12.50
2023-12-11T21:30:20.721Z,12.48
2023-12-11T21:32:48.972Z,12.49
2023-12-11T21:35:17.119Z,12.50
2023-12-11T21:37:45.038Z,12.40
2023-12-11T21:40:14.436Z,12.43
2023-12-11T21:42:43.292Z,12.40
2023-12-11T21:45:12.533Z,12.24
2023-12-11T21:47:40.940Z,12.30
2023-12-11T21:50:11.087Z,12.32
2023-12-11T21:52:39.233Z,12.27
2023-12-11T21:55:08.353Z,12.11
2023-12-11T21:57:36.467Z,12.13
2023-12-11T22:00:05.054Z,12.15
2023-12-11T22:02:41.151Z,11.92
2023-12-11T22:05:10.162Z,11.89
2023-12-11T22:07:38.148Z,11.91
2023-12-11T22:10:07.840Z,11.94
2023-12-11T22:12:36.124Z,11.88
2023-12-11T22:15:04.383Z,11.82
2023-12-11T22:17:32.541Z,11.64
2023-12-11T22:20:02.274Z,11.51
2023-12-11T22:22:30.334Z,11.56
2023-12-11T22:24:58.305Z,11.50
2023-12-11T22:27:26.544Z,11.43
2023-12-11T22:29:54.438Z,11.37
2023-12-11T22:32:22.319Z,11.37
2023-12-11T22:34:50.642Z,11.34
2023-12-11T22:37:19.979Z,11.32
2023-12-11T22:39:47.929Z,11.23
2023-12-11T22:42:16.256Z,11.26
2023-12-11T22:44:44.144Z,11.33
2023-12-11T22:47:12.223Z,11.26
2023-12-11T22:49:40.414Z,11.29
2023-12-11T22:52:08.276Z,11.40
2023-12-11T22:54:37.724Z,11.48
2023-12-11T22:57:06.308Z,11.42
2023-12-11T22:59:34.191Z,11.39
2023-12-11T23:02:04.467Z,11.29
2023-12-11T23:04:33.528Z,11.28
2023-12-11T23:07:01.582Z,11.27
2023-12-11T23:09:29.462Z,10.98
2023-12-11T23:11:58.970Z,11.19
2023-12-11T23:14:26.975Z,10.96
2023-12-11T23:16:54.986Z,11.08
2023-12-11T23:19:23.290Z,11.05
2023-12-11T23:21:51.638Z,10.94
2023-12-11T23:24:20.003Z,10.88
2023-12-11T23:26:48.172Z,10.83
2023-12-11T23:29:17.387Z,10.82
2023-12-11T23:31:45.249Z,10.75
2023-12-11T23:34:13.464Z,10.68
2023-12-11T23:36:41.313Z,10.63
2023-12-11T23:39:09.433Z,10.57
2023-12-11T23:41:37.585Z,10.51
2023-12-11T23:44:05.870Z,10.42
2023-12-11T23:46:35.208Z,10.30
2023-12-11T23:49:03.725Z,10.16
2023-12-11T23:51:32.181Z,10.16
2023-12-11T23:54:00.088Z,10.12
2023-12-11T23:56:28.244Z,10.16
2023-12-11T23:58:56.067Z,10.10
